Terminal Aerodrome Forecast
Issued by NWS Jackson, MS

Home | Current Version | Previous Version | Text Only | Print | Product List | Glossary On
Versions: 1 2 3 4 5 6 7 8 9 10 11 12 13 14 15 16 17 18
275
FTUS44 KMEG 241130
TAFTUP
TAF
KTUP 241130Z 2412/2512 15009KT P6SM SKC WS020/19045KT
     FM241400 21013G21KT P6SM SCT035 SCT250
     FM242300 25008KT P6SM VCTS BKN040CB BKN120
      TEMPO 2500/2504 6SM -SHRA BKN030
     FM250400 30009KT P6SM BKN035
     FM250700 35007KT P6SM SKC=

USA.gov is the U.S. government's official web portal to all federal, state and local government web resources and services.